Time;durP1;ratioP1;P1;durP2;ratioP2;P2;SDS_P1;SDS_P2;PMS_P1;PMS_P2;Temp;Humidity;BMP_temperature;BMP_pressure;BME280_temperature;BME280_humidity;BME280_pressure;Samples;Min_cycle;Max_cycle;Signal;HPM_P1;HPM_P2
2021/03/12 00:01:13;;;;;;;0.20;0.20;;;7.20;99.90;;;;;;5040867;28;20185;-84
2021/03/12 00:03:39;;;;;;;0.00;0.00;;;7.10;99.90;;;;;;5039692;28;20248;-84
2021/03/12 00:06:10;;;;;;;0.07;0.07;;;7.10;99.90;;;;;;5036617;28;20273;-84
2021/03/12 00:08:40;;;;;;;0.07;0.07;;;7.10;99.90;;;;;;5033214;28;20178;-84
2021/03/12 00:11:07;;;;;;;0.10;0.10;;;7.10;99.90;;;;;;5037034;28;20213;-84
2021/03/12 00:13:34;;;;;;;0.10;0.10;;;7.10;99.90;;;;;;5035862;28;20241;-85
2021/03/12 00:16:00;;;;;;;0.00;0.00;;;7.10;99.90;;;;;;5035805;28;20193;-86
2021/03/12 00:18:44;;;;;;;0.03;0.03;;;7.10;99.90;;;;;;5037334;28;20618;-85
2021/03/12 00:21:11;;;;;;;0.10;0.10;;;7.10;99.90;;;;;;5034218;28;20224;-85
2021/03/12 00:23:38;;;;;;;0.10;0.10;;;7.10;99.90;;;;;;5028683;28;20633;-84
2021/03/12 00:26:05;;;;;;;0.10;0.10;;;7.10;99.90;;;;;;5037459;28;20186;-85
2021/03/12 00:28:31;;;;;;;0.10;0.10;;;7.10;99.90;;;;;;5035552;28;20197;-85
2021/03/12 00:30:56;;;;;;;0.00;0.00;;;7.10;99.90;;;;;;5033231;28;20666;-84
2021/03/12 00:33:24;;;;;;;0.10;0.10;;;7.10;99.90;;;;;;5036742;28;20225;-85
2021/03/12 00:35:50;;;;;;;0.43;0.43;;;7.10;99.90;;;;;;5049921;28;20202;-84
2021/03/12 00:38:16;;;;;;;0.10;0.10;;;7.10;99.90;;;;;;5050239;28;20676;-85
2021/03/12 00:40:41;;;;;;;0.67;0.67;;;7.20;99.90;;;;;;5037264;28;20183;-86
2021/03/12 00:43:07;;;;;;;0.00;0.00;;;7.20;99.90;;;;;;5052180;28;20206;-84
2021/03/12 00:45:37;;;;;;;0.10;0.10;;;7.30;99.90;;;;;;5033260;28;20210;-85
2021/03/12 00:48:03;;;;;;;0.10;0.10;;;7.30;99.90;;;;;;5036985;28;20604;-84
2021/03/12 00:50:33;;;;;;;0.20;0.20;;;7.30;99.90;;;;;;5038255;28;20213;-85
2021/03/12 00:52:59;;;;;;;0.20;0.17;;;7.40;99.90;;;;;;5040304;28;20237;-84
2021/03/12 00:55:25;;;;;;;0.10;0.10;;;7.40;99.90;;;;;;5034090;28;20179;-86
2021/03/12 00:57:51;;;;;;;0.10;0.10;;;7.30;99.90;;;;;;5035742;28;20183;-84
2021/03/12 01:00:20;;;;;;;0.10;0.10;;;7.40;99.90;;;;;;5035917;28;20178;-85
2021/03/12 01:02:46;;;;;;;0.10;0.10;;;7.40;99.90;;;;;;5044139;28;20210;-84
2021/03/12 01:05:12;;;;;;;0.10;0.10;;;7.30;99.90;;;;;;5034545;28;20197;-86
2021/03/12 01:07:37;;;;;;;0.03;0.03;;;7.30;99.90;;;;;;5036131;28;20285;-84
2021/03/12 01:10:05;;;;;;;0.10;0.10;;;7.20;99.90;;;;;;5033802;28;20217;-85
2021/03/12 01:12:30;;;;;;;0.03;0.03;;;7.20;99.90;;;;;;5032796;28;20218;-85
2021/03/12 01:14:56;;;;;;;0.10;0.10;;;7.30;99.90;;;;;;5033682;28;20667;-85
2021/03/12 01:17:21;;;;;;;0.00;0.00;;;7.30;99.90;;;;;;5031141;28;20216;-85
2021/03/12 01:19:47;;;;;;;0.10;0.10;;;7.40;99.90;;;;;;5032180;28;20194;-85
2021/03/12 01:22:12;;;;;;;0.10;0.10;;;7.30;99.90;;;;;;5034333;28;20587;-85
2021/03/12 01:24:38;;;;;;;0.13;0.13;;;7.40;99.90;;;;;;5033438;28;20205;-84
2021/03/12 01:27:04;;;;;;;0.20;0.20;;;7.40;99.90;;;;;;5019441;28;20213;-84
2021/03/12 01:29:30;;;;;;;0.10;0.10;;;7.40;99.90;;;;;;5031358;28;20193;-84
2021/03/12 01:31:56;;;;;;;0.00;0.00;;;7.40;99.90;;;;;;5043830;28;20304;-85
2021/03/12 01:34:21;;;;;;;0.27;0.20;;;7.40;99.90;;;;;;5045413;28;20285;-85
2021/03/12 01:36:47;;;;;;;0.33;0.30;;;7.40;99.90;;;;;;5035598;28;20178;-84
2021/03/12 01:39:12;;;;;;;0.10;0.10;;;7.50;99.90;;;;;;5033570;28;20198;-85
2021/03/12 01:41:38;;;;;;;0.20;0.20;;;7.50;99.90;;;;;;5033990;28;20184;-84
2021/03/12 01:44:04;;;;;;;0.00;0.00;;;7.50;99.90;;;;;;5031329;28;20618;-84
2021/03/12 01:46:30;;;;;;;0.13;0.13;;;7.50;99.90;;;;;;5049090;28;20574;-83
2021/03/12 01:48:56;;;;;;;0.10;0.10;;;7.40;99.90;;;;;;5032547;28;20197;-84
2021/03/12 01:51:22;;;;;;;0.10;0.10;;;7.40;99.90;;;;;;5033760;28;20178;-85
2021/03/12 01:53:47;;;;;;;0.00;0.00;;;7.30;99.90;;;;;;5034312;28;20608;-84
2021/03/12 01:56:13;;;;;;;0.10;0.10;;;7.30;99.90;;;;;;5034878;28;20179;-84
2021/03/12 01:58:39;;;;;;;0.10;0.10;;;7.40;99.90;;;;;;5035953;28;20190;-85
2021/03/12 02:01:04;;;;;;;0.10;0.10;;;7.40;99.90;;;;;;5037426;28;20323;-84
2021/03/12 02:03:32;;;;;;;0.20;0.20;;;7.40;99.90;;;;;;5034336;28;20206;-84
2021/03/12 02:05:58;;;;;;;0.47;0.30;;;7.50;99.90;;;;;;5049507;28;20293;-84
2021/03/12 02:08:24;;;;;;;0.00;0.00;;;7.40;99.90;;;;;;5035506;28;20214;-85
2021/03/12 02:10:50;;;;;;;0.27;0.03;;;7.50;99.90;;;;;;5035090;28;20328;-85
2021/03/12 02:13:48;;;;;;;0.10;0.10;;;7.40;99.90;;;;;;5035949;28;20217;-83
2021/03/12 02:16:19;;;;;;;0.20;0.20;;;7.40;99.90;;;;;;5027765;28;20178;-84
2021/03/12 02:19:03;;;;;;;0.10;0.10;;;7.10;99.90;;;;;;5038605;28;20177;-86
2021/03/12 02:21:43;;;;;;;0.10;0.10;;;6.80;99.90;;;;;;5032094;28;20677;-85
2021/03/12 02:24:31;;;;;;;0.20;0.20;;;6.60;99.90;;;;;;5032152;28;20202;-84
2021/03/12 02:27:03;;;;;;;0.00;0.00;;;6.30;99.90;;;;;;5033064;28;20189;-85
2021/03/12 02:29:30;;;;;;;0.10;0.10;;;6.20;99.90;;;;;;5034713;28;20166;-88
2021/03/12 02:31:58;;;;;;;0.00;0.00;;;6.10;99.90;;;;;;5034776;28;20583;-85
2021/03/12 02:34:26;;;;;;;0.00;0.00;;;6.10;99.90;;;;;;5033314;28;20220;-84
2021/03/12 02:37:00;;;;;;;0.00;0.00;;;6.00;99.90;;;;;;5049413;28;20295;-85
2021/03/12 02:39:29;;;;;;;0.10;0.10;;;5.90;99.90;;;;;;5050921;28;20823;-85
2021/03/12 02:41:57;;;;;;;0.00;0.00;;;6.00;99.90;;;;;;5034673;28;20182;-84
2021/03/12 02:44:24;;;;;;;0.10;0.10;;;6.00;99.90;;;;;;5035976;28;20694;-85
2021/03/12 02:46:53;;;;;;;0.10;0.10;;;5.90;99.90;;;;;;5033387;28;20210;-85
2021/03/12 02:49:20;;;;;;;0.43;0.43;;;5.90;99.90;;;;;;5033200;28;20185;-85
2021/03/12 02:51:46;;;;;;;0.00;0.00;;;5.90;99.90;;;;;;5033245;28;20225;-85
2021/03/12 02:54:13;;;;;;;0.27;0.27;;;5.90;99.90;;;;;;5035506;28;20210;-84
2021/03/12 02:56:40;;;;;;;0.00;0.00;;;6.00;99.90;;;;;;5033943;28;20207;-84
2021/03/12 02:59:06;;;;;;;0.00;0.00;;;6.00;99.90;;;;;;5033542;28;20186;-85
2021/03/12 03:01:32;;;;;;;1.50;1.23;;;6.10;99.90;;;;;;5032788;28;20276;-84
2021/03/12 03:03:58;;;;;;;3.40;0.63;;;6.20;99.90;;;;;;5033881;28;20216;-85
2021/03/12 03:06:25;;;;;;;1.03;0.60;;;6.30;99.90;;;;;;5031977;28;20181;-84
2021/03/12 03:08:52;;;;;;;0.10;0.10;;;6.30;99.90;;;;;;5035321;28;20683;-85
2021/03/12 03:11:18;;;;;;;0.40;0.10;;;6.40;99.90;;;;;;5032742;28;20194;-85
2021/03/12 03:13:46;;;;;;;0.00;0.00;;;6.40;99.90;;;;;;5035726;28;20233;-87
2021/03/12 03:16:19;;;;;;;0.20;0.20;;;6.50;99.90;;;;;;5033155;28;20202;-85
2021/03/12 03:18:46;;;;;;;0.00;0.00;;;6.60;99.90;;;;;;5034089;28;20198;-85
2021/03/12 03:21:13;;;;;;;0.10;0.10;;;6.70;99.90;;;;;;5042699;28;20202;-84
2021/03/12 03:23:44;;;;;;;0.10;0.10;;;6.80;99.90;;;;;;5039440;28;20199;-85
2021/03/12 03:26:10;;;;;;;0.10;0.10;;;6.90;99.90;;;;;;5032447;28;20266;-85
2021/03/12 03:28:35;;;;;;;0.10;0.10;;;6.80;99.90;;;;;;5032431;28;20228;-84
2021/03/12 03:31:02;;;;;;;0.10;0.10;;;6.70;99.90;;;;;;5046391;28;20189;-85
2021/03/12 03:33:29;;;;;;;0.10;0.10;;;6.60;99.90;;;;;;5031973;28;20304;-84
2021/03/12 03:35:55;;;;;;;0.10;0.10;;;6.60;99.90;;;;;;5031574;28;20233;-85
2021/03/12 03:38:21;;;;;;;0.10;0.10;;;6.50;99.90;;;;;;5030485;28;20654;-84
2021/03/12 03:40:47;;;;;;;0.00;0.00;;;6.40;99.90;;;;;;5052673;28;20563;-84
2021/03/12 03:43:15;;;;;;;0.10;0.10;;;6.40;99.90;;;;;;5037116;28;20208;-84
2021/03/12 03:45:41;;;;;;;0.07;0.07;;;6.40;99.90;;;;;;5034285;28;20190;-85
2021/03/12 03:48:09;;;;;;;0.00;0.00;;;6.40;99.90;;;;;;5030041;28;20186;-85
2021/03/12 03:50:37;;;;;;;0.10;0.10;;;6.30;99.90;;;;;;5036285;28;20265;-85
2021/03/12 03:53:05;;;;;;;0.00;0.00;;;6.30;99.90;;;;;;5035581;28;20214;-85
2021/03/12 03:55:32;;;;;;;0.10;0.10;;;6.20;99.90;;;;;;5023623;28;20182;-85
2021/03/12 03:58:00;;;;;;;0.00;0.00;;;6.20;99.90;;;;;;5036860;28;20185;-84
2021/03/12 04:00:26;;;;;;;0.80;0.80;;;6.20;99.90;;;;;;5034564;28;20220;-84
2021/03/12 04:02:52;;;;;;;0.10;0.10;;;6.20;99.90;;;;;;5036425;28;20217;-84
2021/03/12 04:05:18;;;;;;;0.10;0.10;;;6.20;99.90;;;;;;5031863;28;20194;-85
2021/03/12 04:07:45;;;;;;;0.00;0.00;;;6.10;99.90;;;;;;5032701;28;20179;-85
2021/03/12 04:10:11;;;;;;;0.10;0.10;;;6.10;99.90;;;;;;5032935;28;20261;-85
2021/03/12 04:12:37;;;;;;;0.00;0.00;;;6.10;99.90;;;;;;5033127;28;20210;-84
2021/03/12 04:15:05;;;;;;;0.00;0.00;;;6.00;99.90;;;;;;5033209;28;20756;-84
2021/03/12 04:17:32;;;;;;;0.10;0.10;;;6.00;99.90;;;;;;5033399;28;20236;-85
2021/03/12 04:19:59;;;;;;;0.10;0.10;;;5.90;99.90;;;;;;5034380;28;20658;-85
2021/03/12 04:22:25;;;;;;;0.20;0.20;;;5.90;99.90;;;;;;5035230;28;20190;-85
2021/03/12 04:24:51;;;;;;;0.10;0.10;;;5.90;99.90;;;;;;5033156;28;20183;-84
2021/03/12 04:27:17;;;;;;;0.23;0.23;;;5.90;99.90;;;;;;5033026;28;20206;-85
2021/03/12 04:29:44;;;;;;;0.10;0.10;;;6.10;99.90;;;;;;5033109;28;20278;-85
2021/03/12 04:32:09;;;;;;;0.73;0.47;;;6.20;99.90;;;;;;5033431;28;20209;-85
2021/03/12 04:34:35;;;;;;;0.10;0.10;;;6.30;99.90;;;;;;5034148;28;20201;-85
2021/03/12 04:37:01;;;;;;;0.00;0.00;;;6.40;99.90;;;;;;5032646;28;20181;-85
2021/03/12 04:39:28;;;;;;;0.10;0.10;;;6.50;99.90;;;;;;5028929;28;20746;-86
2021/03/12 04:41:54;;;;;;;0.00;0.00;;;6.60;99.90;;;;;;5032877;28;20185;-84
2021/03/12 04:44:20;;;;;;;0.47;0.20;;;6.60;99.90;;;;;;5033905;28;20194;-84
2021/03/12 04:46:46;;;;;;;1.20;0.30;;;6.60;99.90;;;;;;5032363;28;20179;-85
2021/03/12 04:49:13;;;;;;;0.10;0.10;;;6.70;99.90;;;;;;5034250;28;20181;-85
2021/03/12 04:51:42;;;;;;;0.10;0.10;;;6.70;99.90;;;;;;5033161;28;20190;-84
2021/03/12 04:54:09;;;;;;;0.10;0.10;;;6.70;99.90;;;;;;5049283;28;20202;-86
2021/03/12 04:56:37;;;;;;;0.10;0.10;;;6.80;99.90;;;;;;5029308;28;20248;-85
2021/03/12 04:59:04;;;;;;;0.00;0.00;;;6.80;99.90;;;;;;5035454;28;20794;-84
2021/03/12 05:01:29;;;;;;;0.03;0.03;;;6.80;99.90;;;;;;5035903;28;20197;-86
2021/03/12 05:03:56;;;;;;;0.07;0.07;;;6.80;99.90;;;;;;5034679;28;20209;-85
2021/03/12 05:06:23;;;;;;;0.10;0.10;;;6.80;99.90;;;;;;5033264;28;20185;-85
2021/03/12 05:08:48;;;;;;;0.10;0.10;;;6.80;99.90;;;;;;5032843;28;20182;-85
2021/03/12 05:11:14;;;;;;;0.10;0.10;;;6.80;99.90;;;;;;5031194;28;20181;-85
2021/03/12 05:13:40;;;;;;;0.07;0.07;;;6.80;99.90;;;;;;5024438;28;20217;-85
2021/03/12 05:16:06;;;;;;;0.10;0.10;;;6.80;99.90;;;;;;5031519;28;20186;-85
2021/03/12 05:18:31;;;;;;;0.03;0.03;;;6.80;99.90;;;;;;5032352;28;20186;-85
2021/03/12 05:20:57;;;;;;;0.10;0.10;;;6.80;99.90;;;;;;5032283;28;20189;-85
2021/03/12 05:23:23;;;;;;;0.00;0.00;;;6.80;99.90;;;;;;5048893;28;20717;-84
2021/03/12 05:25:49;;;;;;;0.10;0.10;;;6.70;99.90;;;;;;5032462;28;20666;-85
2021/03/12 05:28:16;;;;;;;0.10;0.10;;;6.70;99.90;;;;;;5027101;28;20216;-85
2021/03/12 05:30:43;;;;;;;0.00;0.00;;;6.70;99.90;;;;;;5035271;28;20190;-84
2021/03/12 05:33:09;;;;;;;0.27;0.27;;;6.60;99.90;;;;;;5053632;28;20218;-85
2021/03/12 05:35:34;;;;;;;0.00;0.00;;;6.60;99.90;;;;;;5042995;28;20186;-85
2021/03/12 05:38:00;;;;;;;0.10;0.10;;;6.60;99.90;;;;;;5034507;28;20197;-85
2021/03/12 05:40:26;;;;;;;0.00;0.00;;;6.60;99.90;;;;;;5046264;28;20187;-85
2021/03/12 05:42:54;;;;;;;0.07;0.07;;;6.50;99.90;;;;;;5035049;28;20690;-86
2021/03/12 05:45:21;;;;;;;0.00;0.00;;;6.50;99.90;;;;;;5030157;28;20179;-85
2021/03/12 05:47:47;;;;;;;0.10;0.10;;;6.60;99.90;;;;;;5032856;28;20182;-85
2021/03/12 05:50:14;;;;;;;0.03;0.03;;;6.50;99.90;;;;;;5031059;28;20194;-85
2021/03/12 05:52:49;;;;;;;0.10;0.10;;;6.40;99.90;;;;;;5033269;28;20552;-85
2021/03/12 05:55:19;;;;;;;0.10;0.10;;;6.40;99.90;;;;;;5028523;28;20779;-84
2021/03/12 05:57:45;;;;;;;0.10;0.10;;;6.40;99.90;;;;;;5027613;28;20186;-84
2021/03/12 06:00:12;;;;;;;0.00;0.00;;;6.40;99.90;;;;;;5025043;28;20639;-84
2021/03/12 06:02:38;;;;;;;0.20;0.20;;;6.50;99.90;;;;;;5028617;28;20182;-84
2021/03/12 06:05:08;;;;;;;0.20;0.20;;;6.50;99.90;;;;;;5031348;28;20190;-84
2021/03/12 06:07:37;;;;;;;0.33;0.10;;;6.60;99.90;;;;;;5030617;28;20213;-84
2021/03/12 06:10:05;;;;;;;0.03;0.03;;;6.60;99.90;;;;;;5027978;28;20186;-85
2021/03/12 06:12:32;;;;;;;0.10;0.10;;;6.70;99.90;;;;;;5022257;28;20219;-84
2021/03/12 06:15:00;;;;;;;0.10;0.10;;;6.70;99.90;;;;;;5029498;28;20178;-85
2021/03/12 06:17:36;;;;;;;0.10;0.10;;;6.70;99.90;;;;;;5029790;28;20185;-85
2021/03/12 06:20:11;;;;;;;0.00;0.00;;;6.70;99.90;;;;;;5026707;28;20182;-92
2021/03/12 06:22:46;;;;;;;0.00;0.00;;;6.80;99.90;;;;;;5024683;28;20219;-85
2021/03/12 06:25:17;;;;;;;0.27;0.27;;;6.80;99.90;;;;;;5031819;28;20198;-84
2021/03/12 06:27:52;;;;;;;0.10;0.10;;;6.80;99.90;;;;;;5026349;28;20682;-85
2021/03/12 06:30:24;;;;;;;5.03;0.20;;;6.80;99.90;;;;;;5021668;28;20173;-85
2021/03/12 06:32:52;;;;;;;0.10;0.10;;;6.80;99.90;;;;;;5021263;28;20220;-85
2021/03/12 06:35:22;;;;;;;0.37;0.37;;;6.90;99.90;;;;;;5030244;28;20188;-84
2021/03/12 06:37:49;;;;;;;0.40;0.33;;;7.00;99.90;;;;;;5027960;28;20175;-87
2021/03/12 06:40:23;;;;;;;1.83;1.23;;;7.00;99.90;;;;;;5031470;28;20709;-85
2021/03/12 06:43:12;;;;;;;0.10;0.10;;;7.10;99.90;;;;;;5027383;28;20206;-85
2021/03/12 06:45:40;;;;;;;0.40;0.40;;;7.10;99.90;;;;;;5032084;28;20189;-86
2021/03/12 06:48:22;;;;;;;0.30;0.30;;;7.10;99.90;;;;;;5039626;28;20186;-86
2021/03/12 06:51:00;;;;;;;0.10;0.10;;;7.20;99.90;;;;;;5028329;28;20241;-84
2021/03/12 06:53:30;;;;;;;0.10;0.10;;;7.20;99.90;;;;;;5028780;28;20214;-87
2021/03/12 06:56:02;;;;;;;0.10;0.10;;;7.10;99.90;;;;;;5031083;28;20182;-83
2021/03/12 06:58:29;;;;;;;0.17;0.17;;;7.10;99.90;;;;;;5028764;28;20190;-84
2021/03/12 07:00:55;;;;;;;0.20;0.20;;;7.10;99.90;;;;;;5030526;28;20196;-84
2021/03/12 07:03:23;;;;;;;0.60;0.10;;;7.20;99.90;;;;;;5029530;28;20236;-84
2021/03/12 07:05:57;;;;;;;0.10;0.10;;;7.10;99.90;;;;;;5026137;28;21130;-84
2021/03/12 07:08:29;;;;;;;0.10;0.10;;;7.10;99.90;;;;;;5030821;28;20263;-84
2021/03/12 07:10:55;;;;;;;0.30;0.30;;;7.00;99.90;;;;;;5021534;28;20183;-84
2021/03/12 07:13:21;;;;;;;0.00;0.00;;;7.10;99.90;;;;;;5032203;28;20226;-85
2021/03/12 07:15:50;;;;;;;0.37;0.30;;;7.10;99.90;;;;;;5033695;28;20180;-83
2021/03/12 07:18:17;;;;;;;0.10;0.10;;;7.10;99.90;;;;;;5026768;28;20175;-84
2021/03/12 07:20:46;;;;;;;0.10;0.10;;;7.00;99.90;;;;;;5031906;28;20187;-84
2021/03/12 07:23:13;;;;;;;0.10;0.10;;;7.00;99.90;;;;;;5030975;28;20256;-84
2021/03/12 07:25:44;;;;;;;0.50;0.50;;;7.00;99.90;;;;;;5034437;28;20557;-84
2021/03/12 07:28:13;;;;;;;0.70;0.40;;;6.90;99.90;;;;;;5021197;28;20191;-84
2021/03/12 07:30:40;;;;;;;0.10;0.10;;;7.20;99.90;;;;;;5032391;28;20789;-84
2021/03/12 07:33:06;;;;;;;0.10;0.10;;;7.30;99.90;;;;;;5027591;28;20302;-83
2021/03/12 07:35:36;;;;;;;0.10;0.10;;;7.60;99.90;;;;;;5027357;28;20729;-83
2021/03/12 07:38:05;;;;;;;0.00;0.00;;;7.80;99.90;;;;;;5032147;28;20205;-84
2021/03/12 07:40:31;;;;;;;0.10;0.10;;;8.00;99.90;;;;;;5031897;28;20188;-83
2021/03/12 07:42:58;;;;;;;0.20;0.20;;;8.30;99.90;;;;;;5048020;28;20202;-83
2021/03/12 07:45:24;;;;;;;0.10;0.10;;;8.20;99.90;;;;;;5028112;28;20185;-85
2021/03/12 07:47:49;;;;;;;0.10;0.10;;;8.20;99.90;;;;;;5029493;28;20193;-84
2021/03/12 07:50:27;;;;;;;0.10;0.10;;;8.20;99.90;;;;;;5041440;28;20179;-83
2021/03/12 07:52:53;;;;;;;1.80;0.40;;;8.50;99.90;;;;;;5030725;28;20260;-84
2021/03/12 07:55:37;;;;;;;1.07;1.00;;;8.50;99.90;;;;;;5024808;28;20259;-83
2021/03/12 07:58:08;;;;;;;0.00;0.00;;;8.40;99.90;;;;;;5027693;28;20181;-83
2021/03/12 08:00:52;;;;;;;0.10;0.10;;;8.30;99.90;;;;;;5027858;28;20186;-83
2021/03/12 08:03:28;;;;;;;0.10;0.10;;;8.30;99.90;;;;;;5032647;28;20210;-83
2021/03/12 08:05:53;;;;;;;7.73;0.30;;;8.30;99.90;;;;;;5042614;28;20183;-83
2021/03/12 08:08:41;;;;;;;0.10;0.10;;;8.30;99.90;;;;;;5029492;28;20186;-82
2021/03/12 08:11:29;;;;;;;0.10;0.10;;;8.40;99.90;;;;;;5039545;28;20229;-83
2021/03/12 08:14:10;;;;;;;0.10;0.10;;;8.50;99.90;;;;;;5026634;28;20214;-84
2021/03/12 08:16:36;;;;;;;0.10;0.10;;;8.50;99.90;;;;;;5053985;28;20533;-85
2021/03/12 08:19:27;;;;;;;0.53;0.20;;;8.60;99.90;;;;;;5034692;28;20236;-84
2021/03/12 08:21:53;;;;;;;0.10;0.10;;;8.60;99.90;;;;;;5033392;28;20195;-83
2021/03/12 08:24:45;;;;;;;0.10;0.10;;;8.60;99.90;;;;;;5036281;28;20203;-83
2021/03/12 08:27:11;;;;;;;0.00;0.00;;;8.60;99.90;;;;;;5031138;28;20192;-84
2021/03/12 08:29:38;;;;;;;0.10;0.10;;;8.60;99.90;;;;;;5032212;28;20182;-83
2021/03/12 08:32:36;;;;;;;0.20;0.20;;;8.70;99.90;;;;;;5036962;28;20573;-84
2021/03/12 08:35:03;;;;;;;0.30;0.20;;;8.80;99.90;;;;;;5027746;28;20183;-84
2021/03/12 08:37:29;;;;;;;0.00;0.00;;;8.80;99.90;;;;;;5015696;28;20184;-83
2021/03/12 08:40:13;;;;;;;0.10;0.10;;;8.90;99.90;;;;;;5024722;28;20747;-83
2021/03/12 08:43:00;;;;;;;0.10;0.10;;;8.90;99.90;;;;;;5028725;28;20277;-83
2021/03/12 08:45:47;;;;;;;0.13;0.13;;;8.90;99.90;;;;;;5048629;28;20191;-84
2021/03/12 08:48:15;;;;;;;0.30;0.30;;;9.00;99.90;;;;;;5030500;28;20183;-83
2021/03/12 08:50:51;;;;;;;0.37;0.30;;;9.20;99.90;;;;;;5031871;28;20208;-83
2021/03/12 08:53:17;;;;;;;0.10;0.10;;;9.20;99.90;;;;;;5031828;28;20210;-83
2021/03/12 08:55:45;;;;;;;0.53;0.53;;;9.50;99.90;;;;;;5022742;28;20201;-84
2021/03/12 08:58:18;;;;;;;0.10;0.10;;;9.60;99.90;;;;;;5047665;28;20210;-83
2021/03/12 09:00:45;;;;;;;0.77;0.77;;;9.60;99.90;;;;;;5041827;28;20730;-84
2021/03/12 09:03:20;;;;;;;0.10;0.10;;;9.60;99.90;;;;;;5033637;28;20273;-84
2021/03/12 09:05:48;;;;;;;0.27;0.23;;;10.00;99.90;;;;;;5048854;28;20179;-84
2021/03/12 09:08:14;;;;;;;0.20;0.20;;;10.00;99.90;;;;;;5033263;28;20191;-84
2021/03/12 09:10:41;;;;;;;0.10;0.10;;;10.10;99.90;;;;;;5033422;28;20566;-83
2021/03/12 09:13:18;;;;;;;1.60;0.50;;;10.00;99.90;;;;;;5049202;28;20214;-84
2021/03/12 09:15:45;;;;;;;0.10;0.10;;;9.90;99.90;;;;;;5030398;28;20182;-83
2021/03/12 09:18:20;;;;;;;0.20;0.20;;;9.90;99.90;;;;;;5028813;28;20182;-84
2021/03/12 09:20:57;;;;;;;0.10;0.10;;;9.90;99.90;;;;;;5022650;28;20911;-84
2021/03/12 09:23:43;;;;;;;0.17;0.17;;;9.90;99.90;;;;;;5028320;28;20210;-84
2021/03/12 09:26:18;;;;;;;0.00;0.00;;;9.80;99.90;;;;;;5046576;28;20194;-83
2021/03/12 09:28:45;;;;;;;0.03;0.03;;;9.90;99.90;;;;;;5036569;28;20180;-87
2021/03/12 09:31:12;;;;;;;0.03;0.03;;;9.90;99.90;;;;;;5031762;28;20190;-82
2021/03/12 09:33:45;;;;;;;0.23;0.20;;;10.10;99.90;;;;;;5031456;28;20212;-83
2021/03/12 09:36:33;;;;;;;0.43;0.43;;;10.30;99.90;;;;;;5031665;28;20198;-84
2021/03/12 09:39:13;;;;;;;0.10;0.10;;;10.40;99.90;;;;;;5031868;28;20207;-84
2021/03/12 09:41:41;;;;;;;3.87;0.60;;;10.50;99.90;;;;;;5030417;28;20182;-82
2021/03/12 09:44:09;;;;;;;1.50;0.30;;;10.60;99.90;;;;;;5026494;28;20213;-85
2021/03/12 09:46:41;;;;;;;0.40;0.40;;;10.20;99.90;;;;;;5031155;28;20189;-83
2021/03/12 09:49:12;;;;;;;0.10;0.10;;;10.30;99.90;;;;;;5035806;28;20181;-84
2021/03/12 09:51:39;;;;;;;0.10;0.10;;;10.20;99.90;;;;;;5037266;28;20222;-83
2021/03/12 09:54:07;;;;;;;0.73;0.20;;;10.10;99.90;;;;;;5025868;28;20683;-83
2021/03/12 09:56:33;;;;;;;0.10;0.10;;;9.90;99.90;;;;;;5029752;28;20184;-84
2021/03/12 09:58:59;;;;;;;0.10;0.10;;;9.80;99.90;;;;;;5031796;28;20186;-84
2021/03/12 10:01:25;;;;;;;5.60;0.30;;;9.90;99.90;;;;;;5030729;28;20619;-85
2021/03/12 10:03:51;;;;;;;0.10;0.10;;;9.80;99.90;;;;;;5037174;28;20804;-84
2021/03/12 10:06:17;;;;;;;0.20;0.20;;;9.70;99.90;;;;;;5041057;28;20218;-84
2021/03/12 10:09:08;;;;;;;0.07;0.07;;;9.60;99.90;;;;;;5035048;28;20245;-84
2021/03/12 10:11:48;;;;;;;0.10;0.10;;;9.60;99.90;;;;;;5035055;28;20237;-85
2021/03/12 10:14:33;;;;;;;1.37;0.30;;;9.60;99.90;;;;;;5038040;28;20212;-84
2021/03/12 10:17:11;;;;;;;1.13;0.80;;;9.80;99.90;;;;;;5031940;28;20263;-84
2021/03/12 10:19:45;;;;;;;6.70;0.90;;;9.80;99.90;;;;;;5033323;28;20183;-83
2021/03/12 10:22:23;;;;;;;0.10;0.10;;;9.70;99.90;;;;;;5034701;28;20190;-83
2021/03/12 10:25:04;;;;;;;0.20;0.20;;;9.70;99.90;;;;;;5024964;28;20180;-84
2021/03/12 10:27:34;;;;;;;0.10;0.10;;;9.80;99.90;;;;;;5028590;28;20193;-84
2021/03/12 10:30:07;;;;;;;0.10;0.10;;;9.90;99.90;;;;;;5038056;28;20182;-84
2021/03/12 10:32:37;;;;;;;0.10;0.10;;;10.00;99.90;;;;;;5036828;28;20205;-85
2021/03/12 10:35:13;;;;;;;0.10;0.10;;;10.20;99.90;;;;;;5034709;28;20608;-84
2021/03/12 10:37:39;;;;;;;0.20;0.20;;;10.50;99.90;;;;;;5041475;28;20188;-82
2021/03/12 10:40:07;;;;;;;0.10;0.10;;;10.70;99.90;;;;;;5030101;28;20245;-83
2021/03/12 10:42:33;;;;;;;0.10;0.10;;;11.30;99.90;;;;;;5030888;28;20561;-82
2021/03/12 10:45:00;;;;;;;1.23;0.20;;;11.30;99.90;;;;;;5032532;28;20189;-82
2021/03/12 10:47:27;;;;;;;0.10;0.10;;;11.10;99.90;;;;;;5042100;28;20192;-83
2021/03/12 10:49:54;;;;;;;0.10;0.10;;;11.10;99.90;;;;;;5035962;28;20235;-82
2021/03/12 10:52:31;;;;;;;0.53;0.53;;;11.10;99.90;;;;;;5035344;28;20213;-82
2021/03/12 10:55:07;;;;;;;0.57;0.37;;;11.20;99.90;;;;;;5037987;28;20195;-83
2021/03/12 10:57:41;;;;;;;0.37;0.37;;;11.40;99.90;;;;;;5035730;28;20675;-83
2021/03/12 11:00:28;;;;;;;0.20;0.20;;;11.50;99.90;;;;;;5030705;28;20192;-82
2021/03/12 11:03:01;;;;;;;0.80;0.80;;;11.70;99.90;;;;;;5031109;28;21629;-83
2021/03/12 11:05:26;;;;;;;0.00;0.00;;;11.70;99.90;;;;;;5026507;28;20682;-81
2021/03/12 11:07:52;;;;;;;1.07;0.20;;;11.70;99.90;;;;;;5033889;28;20191;-83
2021/03/12 11:10:19;;;;;;;0.40;0.40;;;11.50;99.90;;;;;;5038247;28;20702;-83
2021/03/12 11:12:50;;;;;;;0.00;0.00;;;11.30;99.90;;;;;;5043431;28;20226;-82
2021/03/12 11:15:17;;;;;;;0.00;0.00;;;11.40;99.90;;;;;;5035453;28;20557;-82
2021/03/12 11:17:47;;;;;;;0.30;0.30;;;11.60;99.90;;;;;;5050751;28;20274;-83
2021/03/12 11:20:18;;;;;;;0.10;0.10;;;11.60;99.90;;;;;;5035507;28;20316;-82
2021/03/12 11:22:44;;;;;;;0.10;0.10;;;11.40;99.90;;;;;;5033289;28;20186;-82
2021/03/12 11:25:10;;;;;;;4.23;0.20;;;11.20;99.90;;;;;;5033883;28;20198;-82
2021/03/12 11:27:36;;;;;;;0.00;0.00;;;11.10;99.90;;;;;;5037069;28;20665;-83
2021/03/12 11:30:13;;;;;;;0.10;0.10;;;11.00;99.90;;;;;;5034610;28;20237;-82
2021/03/12 11:32:39;;;;;;;0.10;0.10;;;10.70;99.90;;;;;;5029078;28;20222;-83
2021/03/12 11:35:07;;;;;;;0.00;0.00;;;10.80;99.90;;;;;;5033884;28;20193;-83
2021/03/12 11:37:32;;;;;;;0.10;0.10;;;11.10;99.90;;;;;;5028730;28;20184;-82
2021/03/12 11:39:59;;;;;;;0.70;0.47;;;11.20;99.90;;;;;;5047924;28;20181;-83
2021/03/12 11:42:25;;;;;;;0.10;0.10;;;11.40;99.90;;;;;;5031703;28;20992;-83
2021/03/12 11:44:50;;;;;;;0.50;0.47;;;11.40;99.90;;;;;;5033276;28;20191;-82
2021/03/12 11:47:16;;;;;;;0.10;0.10;;;11.80;99.90;;;;;;5051113;28;20233;-82
2021/03/12 11:49:45;;;;;;;0.10;0.10;;;11.60;99.90;;;;;;5029361;28;20181;-83
2021/03/12 11:52:12;;;;;;;0.97;0.30;;;11.50;99.90;;;;;;5030526;28;20220;-82
2021/03/12 11:54:37;;;;;;;0.23;0.23;;;11.40;99.90;;;;;;5029916;28;20986;-83
2021/03/12 11:57:03;;;;;;;0.27;0.23;;;11.20;99.90;;;;;;5027833;28;20189;-82
2021/03/12 11:59:29;;;;;;;0.10;0.10;;;11.10;99.90;;;;;;5031397;28;20209;-84
2021/03/12 12:01:57;;;;;;;0.10;0.10;;;10.80;99.90;;;;;;5028224;28;20204;-83
2021/03/12 12:04:23;;;;;;;0.03;0.03;;;10.70;99.90;;;;;;5031464;28;20206;-83
2021/03/12 12:06:49;;;;;;;0.10;0.10;;;10.60;99.90;;;;;;5027526;28;20185;-84
2021/03/12 12:09:15;;;;;;;0.00;0.00;;;10.50;99.90;;;;;;5045063;28;20614;-83
2021/03/12 12:11:40;;;;;;;0.10;0.10;;;10.50;99.90;;;;;;5034170;28;20261;-84
2021/03/12 12:14:09;;;;;;;0.20;0.20;;;10.90;99.90;;;;;;5051028;28;20303;-83
2021/03/12 12:16:35;;;;;;;0.10;0.10;;;11.50;99.90;;;;;;5048503;28;20189;-83
2021/03/12 12:19:05;;;;;;;0.10;0.10;;;12.00;99.90;;;;;;5025906;28;20539;-83
2021/03/12 12:21:31;;;;;;;0.43;0.43;;;12.10;99.90;;;;;;5027634;28;20928;-83
2021/03/12 12:23:57;;;;;;;0.07;0.07;;;12.20;99.90;;;;;;5031497;28;20554;-83
2021/03/12 12:26:22;;;;;;;0.13;0.13;;;12.10;99.90;;;;;;5028158;28;20197;-83
2021/03/12 12:28:48;;;;;;;0.13;0.13;;;12.00;99.90;;;;;;5027245;28;20206;-83
2021/03/12 12:31:14;;;;;;;0.10;0.10;;;11.90;99.90;;;;;;5025582;28;20190;-82
2021/03/12 12:33:40;;;;;;;0.10;0.10;;;11.90;99.90;;;;;;5030918;28;20234;-83
2021/03/12 12:36:07;;;;;;;0.10;0.10;;;11.90;99.90;;;;;;5027806;28;20189;-84
2021/03/12 12:38:33;;;;;;;0.10;0.10;;;11.90;99.90;;;;;;5027921;28;20197;-83
2021/03/12 12:40:58;;;;;;;1.20;1.10;;;11.70;99.90;;;;;;5035342;28;20189;-84
2021/03/12 12:43:24;;;;;;;0.10;0.10;;;11.70;99.90;;;;;;5031632;28;20220;-86
2021/03/12 12:45:50;;;;;;;3.40;0.20;;;11.70;99.90;;;;;;5033147;28;20750;-85
2021/03/12 12:48:15;;;;;;;0.33;0.33;;;11.50;99.90;;;;;;5027935;28;20265;-85
2021/03/12 12:50:41;;;;;;;0.00;0.00;;;11.40;99.90;;;;;;5031820;28;20657;-85
2021/03/12 12:53:06;;;;;;;0.10;0.10;;;11.30;99.90;;;;;;5034084;28;20657;-84
2021/03/12 12:55:33;;;;;;;0.40;0.40;;;11.30;99.90;;;;;;5043260;28;20186;-86
2021/03/12 12:57:58;;;;;;;0.00;0.00;;;11.40;99.90;;;;;;5033357;28;20199;-86
2021/03/12 13:00:25;;;;;;;0.30;0.30;;;11.30;99.90;;;;;;5052297;28;20645;-85
2021/03/12 13:02:50;;;;;;;2.80;0.83;;;11.50;99.90;;;;;;5033576;28;20213;-85
2021/03/12 13:05:17;;;;;;;0.10;0.10;;;11.60;99.90;;;;;;5032709;28;20272;-86